createdAt,value
2023-04-09T00:02:03.640Z,9.48
2023-04-09T00:04:23.958Z,11.98
2023-04-09T00:06:44.307Z,13.77
2023-04-09T00:09:04.907Z,14.85
2023-04-09T00:11:25.507Z,14.90
2023-04-09T00:13:46.086Z,14.40
2023-04-09T00:16:06.738Z,12.95
2023-04-09T00:18:27.285Z,12.75
2023-04-09T00:20:47.657Z,14.27
2023-04-09T00:23:07.679Z,12.82
2023-04-09T00:25:28.232Z,13.80
2023-04-09T00:27:48.586Z,13.45
2023-04-09T00:30:09.146Z,11.05
2023-04-09T00:32:29.200Z,12.88
2023-04-09T00:34:49.637Z,10.32
2023-04-09T00:37:10.120Z,11.13
2023-04-09T00:39:30.367Z,11.45
2023-04-09T00:41:50.478Z,10.63
2023-04-09T00:44:10.811Z,11.50
2023-04-09T00:46:31.989Z,11.77
2023-04-09T00:48:52.491Z,11.80
2023-04-09T00:51:12.904Z,11.05
2023-04-09T00:53:33.007Z,9.68
2023-04-09T00:55:55.120Z,10.98
2023-04-09T00:58:15.684Z,11.73
2023-04-09T01:00:35.697Z,12.40
2023-04-09T01:02:57.785Z,10.50
2023-04-09T01:05:18.094Z,13.50
2023-04-09T01:07:56.980Z,11.60
2023-04-09T01:10:20.437Z,13.10
2023-04-09T01:12:40.732Z,13.80
2023-04-09T01:15:11.181Z,12.93
2023-04-09T01:17:33.766Z,12.25
2023-04-09T01:19:54.012Z,14.60
2023-04-09T01:22:21.513Z,11.57
2023-04-09T01:24:57.140Z,12.70
2023-04-09T01:27:17.749Z,12.65
2023-04-09T01:29:57.325Z,11.70
2023-04-09T01:32:18.847Z,11.52
2023-04-09T01:34:44.310Z,12.60
2023-04-09T01:37:04.940Z,13.90
2023-04-09T01:39:25.741Z,11.93
2023-04-09T01:41:50.784Z,12.35
2023-04-09T01:44:12.405Z,11.02
2023-04-09T01:46:34.598Z,11.65
2023-04-09T01:48:55.695Z,11.10
2023-04-09T01:51:17.033Z,10.98
2023-04-09T01:53:37.417Z,10.20
2023-04-09T01:56:01.063Z,10.70
2023-04-09T01:58:21.078Z,11.35
2023-04-09T02:00:46.937Z,11.57
2023-04-09T02:03:10.785Z,10.35
2023-04-09T02:05:36.218Z,11.52
2023-04-09T02:07:57.044Z,11.73
2023-04-09T02:10:19.705Z,12.10
2023-04-09T02:12:45.504Z,10.52
2023-04-09T02:15:06.793Z,15.23
2023-04-09T02:17:27.524Z,10.95
2023-04-09T02:19:48.391Z,10.63
2023-04-09T02:22:09.024Z,10.10
2023-04-09T02:24:29.992Z,11.88
2023-04-09T02:26:50.085Z,10.68
2023-04-09T02:29:10.436Z,9.95
2023-04-09T02:31:30.667Z,9.93
2023-04-09T02:33:52.097Z,8.98
2023-04-09T02:36:12.962Z,9.10
2023-04-09T02:38:33.483Z,9.25
2023-04-09T02:40:53.576Z,10.00
2023-04-09T02:43:13.824Z,10.05
2023-04-09T02:45:34.033Z,9.50
2023-04-09T02:47:54.375Z,9.63
2023-04-09T02:50:14.536Z,10.60
2023-04-09T02:52:34.748Z,10.10
2023-04-09T02:54:54.837Z,8.10
2023-04-09T02:57:14.841Z,9.63
2023-04-09T02:59:35.222Z,10.18
2023-04-09T03:01:55.445Z,9.43
2023-04-09T03:04:15.794Z,9.77
2023-04-09T03:06:36.065Z,9.27
2023-04-09T03:08:56.217Z,9.77
2023-04-09T03:11:16.799Z,10.88
2023-04-09T03:13:36.837Z,10.63
2023-04-09T03:15:56.952Z,10.95
2023-04-09T03:18:17.005Z,10.70
2023-04-09T03:20:40.075Z,8.88
2023-04-09T03:25:20.663Z,12.60
2023-04-09T03:27:40.652Z,9.65
2023-04-09T03:30:00.932Z,9.05
2023-04-09T03:32:20.956Z,8.45
2023-04-09T03:34:41.001Z,10.65
2023-04-09T03:37:01.233Z,9.68
2023-04-09T03:39:21.260Z,9.93
2023-04-09T03:41:41.548Z,10.65
2023-04-09T03:44:01.551Z,11.32
2023-04-09T03:46:21.881Z,13.43
2023-04-09T03:48:42.230Z,13.23
2023-04-09T03:51:02.311Z,13.18
2023-04-09T03:53:23.031Z,13.07
2023-04-09T03:55:43.688Z,14.38
2023-04-09T03:58:03.797Z,13.95
2023-04-09T04:00:24.035Z,15.05
2023-04-09T04:02:44.250Z,13.60
2023-04-09T04:05:05.057Z,14.27
2023-04-09T04:07:25.700Z,15.32
2023-04-09T04:09:45.717Z,13.75
2023-04-09T04:12:06.082Z,15.63
2023-04-09T04:14:26.681Z,13.85
2023-04-09T04:16:46.957Z,13.02
2023-04-09T04:19:07.463Z,13.32
2023-04-09T04:21:27.733Z,12.38
2023-04-09T04:23:47.965Z,11.73
2023-04-09T04:26:11.383Z,11.05
2023-04-09T04:28:31.703Z,12.02
2023-04-09T04:30:52.208Z,10.20
2023-04-09T04:33:12.440Z,11.38
2023-04-09T04:35:32.569Z,11.10
2023-04-09T04:37:52.761Z,11.20
2023-04-09T04:40:12.776Z,12.30
2023-04-09T04:42:33.391Z,10.57
2023-04-09T04:44:53.718Z,12.23
2023-04-09T04:47:13.904Z,14.88
2023-04-09T04:49:34.155Z,13.63
2023-04-09T04:51:54.250Z,11.68
2023-04-09T04:54:14.674Z,12.43
2023-04-09T04:56:35.149Z,9.82
2023-04-09T04:58:55.414Z,11.68
2023-04-09T05:01:15.762Z,11.60
2023-04-09T05:03:36.074Z,13.63
2023-04-09T05:05:56.181Z,11.18
2023-04-09T05:08:16.930Z,17.10
2023-04-09T05:10:37.308Z,19.90
2023-04-09T05:12:57.905Z,20.50
2023-04-09T05:15:18.251Z,19.40
2023-04-09T05:17:38.791Z,20.92
2023-04-09T05:19:59.374Z,19.50
2023-04-09T05:22:19.962Z,16.92
2023-04-09T05:24:40.226Z,23.52
2023-04-09T05:27:00.688Z,21.60
2023-04-09T05:29:21.314Z,14.55
2023-04-09T05:31:42.324Z,14.55
2023-04-09T05:34:02.713Z,14.57
2023-04-09T05:36:23.148Z,12.65
2023-04-09T05:38:44.133Z,11.65
2023-04-09T05:41:04.943Z,11.43
2023-04-09T05:43:25.314Z,11.60
2023-04-09T05:45:45.580Z,11.98
2023-04-09T05:48:06.040Z,8.95
2023-04-09T05:50:26.050Z,10.13
2023-04-09T05:52:46.201Z,10.77
2023-04-09T05:55:06.469Z,9.18
2023-04-09T05:57:29.544Z,10.70
2023-04-09T05:59:49.706Z,11.68
2023-04-09T06:02:09.863Z,10.43
2023-04-09T06:04:30.100Z,8.82
2023-04-09T06:06:51.104Z,10.80
2023-04-09T06:09:11.959Z,9.50
2023-04-09T06:11:33.524Z,8.07
2023-04-09T06:13:53.669Z,10.02
2023-04-09T06:16:13.905Z,10.98
2023-04-09T06:18:34.530Z,10.15
2023-04-09T06:21:01.831Z,8.90
2023-04-09T06:23:22.271Z,9.20
2023-04-09T06:25:42.406Z,6.75
2023-04-09T06:28:03.032Z,7.43
2023-04-09T06:30:23.141Z,6.05
2023-04-09T06:32:53.828Z,10.13
2023-04-09T06:35:15.720Z,14.07
2023-04-09T06:37:35.743Z,11.85
2023-04-09T06:40:01.026Z,12.25
2023-04-09T06:42:21.974Z,9.70
2023-04-09T06:44:42.010Z,8.43
2023-04-09T06:47:02.366Z,10.02
2023-04-09T06:49:22.569Z,10.43
2023-04-09T06:51:42.756Z,11.25
2023-04-09T06:54:02.866Z,11.77
2023-04-09T06:56:23.198Z,11.70
2023-04-09T06:58:43.234Z,9.15
2023-04-09T07:01:03.788Z,9.75
2023-04-09T07:03:24.128Z,9.20
2023-04-09T07:05:44.796Z,10.38
2023-04-09T07:08:05.364Z,11.43
2023-04-09T07:10:25.972Z,9.18
2023-04-09T07:12:46.236Z,13.20
2023-04-09T07:15:06.924Z,9.10
2023-04-09T07:17:27.463Z,9.18
2023-04-09T07:19:47.609Z,10.90
2023-04-09T07:22:07.729Z,10.73
2023-04-09T07:24:27.957Z,12.50
2023-04-09T07:26:51.184Z,9.60
2023-04-09T07:29:13.132Z,9.07
2023-04-09T07:31:35.786Z,5.78
2023-04-09T07:33:56.145Z,8.88
2023-04-09T07:36:16.353Z,6.20
2023-04-09T07:38:36.544Z,8.38
2023-04-09T07:40:57.732Z,8.02
2023-04-09T07:43:17.713Z,8.32
2023-04-09T07:45:37.998Z,8.32
2023-04-09T07:47:58.523Z,7.18
2023-04-09T07:50:18.532Z,6.93
2023-04-09T07:52:38.968Z,5.50
2023-04-09T07:54:59.039Z,6.70
2023-04-09T07:57:19.406Z,6.75
2023-04-09T07:59:39.932Z,6.60
2023-04-09T08:02:00.506Z,4.45
2023-04-09T08:04:24.143Z,5.43
2023-04-09T08:06:50.041Z,4.32
2023-04-09T08:09:10.494Z,4.43
2023-04-09T08:11:30.640Z,4.00
2023-04-09T08:13:54.315Z,3.53
2023-04-09T08:16:14.854Z,4.15
2023-04-09T08:18:35.341Z,4.18
2023-04-09T08:20:56.201Z,4.13
2023-04-09T08:23:16.562Z,3.80
2023-04-09T08:25:36.733Z,4.07
2023-04-09T08:27:57.480Z,3.80
2023-04-09T08:30:18.907Z,4.28
2023-04-09T08:32:39.465Z,3.88
2023-04-09T08:34:59.834Z,4.15
2023-04-09T08:37:20.032Z,3.78
2023-04-09T08:39:40.181Z,5.50
2023-04-09T08:42:03.467Z,9.50
2023-04-09T08:44:26.235Z,4.60
2023-04-09T08:46:46.319Z,3.78
2023-04-09T08:49:08.498Z,3.92
2023-04-09T08:51:28.911Z,3.97
2023-04-09T08:53:52.606Z,3.85
2023-04-09T08:56:13.519Z,4.60
2023-04-09T08:58:34.115Z,4.40
2023-04-09T09:00:54.333Z,4.55
2023-04-09T09:03:15.226Z,3.45
2023-04-09T09:05:42.819Z,4.28
2023-04-09T09:08:02.997Z,5.68
2023-04-09T09:10:36.899Z,3.90
2023-04-09T09:12:57.204Z,4.97
2023-04-09T09:15:30.261Z,3.80
2023-04-09T09:17:56.321Z,3.75
2023-04-09T09:20:20.431Z,3.38
2023-04-09T09:22:55.025Z,2.80
2023-04-09T09:25:15.589Z,3.08
2023-04-09T09:27:38.812Z,3.70
2023-04-09T09:29:59.566Z,2.90
2023-04-09T09:32:22.819Z,3.22
2023-04-09T09:34:42.941Z,5.43
2023-04-09T09:37:05.090Z,4.25
2023-04-09T09:39:43.819Z,5.07
2023-04-09T09:42:07.695Z,2.88
2023-04-09T09:44:32.320Z,4.03
2023-04-09T09:46:52.901Z,4.47
2023-04-09T09:49:13.002Z,4.00
2023-04-09T09:51:34.091Z,5.43
2023-04-09T09:53:55.873Z,3.45
2023-04-09T09:56:18.851Z,3.42
2023-04-09T09:58:45.545Z,5.00
2023-04-09T10:01:10.526Z,2.80
2023-04-09T10:03:32.386Z,3.17
2023-04-09T10:05:53.418Z,2.85
2023-04-09T10:08:14.021Z,2.50
2023-04-09T10:10:34.181Z,2.75
2023-04-09T10:12:55.613Z,3.33
2023-04-09T10:15:15.769Z,2.50
2023-04-09T10:17:36.179Z,3.08
2023-04-09T10:20:05.693Z,3.10
2023-04-09T10:22:27.051Z,15.45
2023-04-09T10:24:47.333Z,2.58
2023-04-09T10:27:16.656Z,3.40
2023-04-09T10:29:42.406Z,4.32
2023-04-09T10:32:10.944Z,3.78
2023-04-09T10:34:34.885Z,2.53
2023-04-09T10:36:59.321Z,2.50
2023-04-09T10:39:19.924Z,2.60
2023-04-09T10:41:41.041Z,2.25
2023-04-09T10:44:06.165Z,2.40
2023-04-09T10:46:36.173Z,2.88
2023-04-09T10:49:12.927Z,2.10
2023-04-09T10:51:38.189Z,2.58
2023-04-09T10:53:58.179Z,2.30
2023-04-09T10:56:18.138Z,2.30
2023-04-09T10:58:38.478Z,2.45
2023-04-09T11:01:01.738Z,1.70
2023-04-09T11:03:22.122Z,2.08
2023-04-09T11:05:43.537Z,2.25
2023-04-09T11:08:21.938Z,2.03
2023-04-09T11:10:44.027Z,1.80
2023-04-09T11:13:04.790Z,2.20
2023-04-09T11:15:25.030Z,2.88
2023-04-09T11:17:46.455Z,2.20
2023-04-09T11:20:07.399Z,1.70
2023-04-09T11:22:28.829Z,1.60
2023-04-09T11:24:50.348Z,2.00
2023-04-09T11:27:10.804Z,1.75
2023-04-09T11:29:30.837Z,2.03
2023-04-09T11:31:51.170Z,1.55
2023-04-09T11:34:11.836Z,1.40
2023-04-09T11:36:34.800Z,1.67
2023-04-09T11:38:55.551Z,1.70
2023-04-09T11:41:15.892Z,1.30
2023-04-09T11:43:36.641Z,1.70
2023-04-09T11:45:57.749Z,1.35
2023-04-09T11:48:18.653Z,1.77
2023-04-09T11:50:39.115Z,1.75
2023-04-09T11:52:59.530Z,1.50
2023-04-09T11:55:23.611Z,1.70
2023-04-09T11:57:47.248Z,1.73
2023-04-09T12:00:08.313Z,1.92
2023-04-09T12:02:30.024Z,1.73
2023-04-09T12:04:50.760Z,1.60
2023-04-09T12:07:10.823Z,1.92
2023-04-09T12:09:30.960Z,1.70
2023-04-09T12:11:50.907Z,1.80
2023-04-09T12:14:15.636Z,1.83
2023-04-09T12:16:36.019Z,1.70
2023-04-09T12:18:56.334Z,1.48
2023-04-09T12:21:18.128Z,1.70
2023-04-09T12:23:40.136Z,2.20
2023-04-09T12:26:00.655Z,2.15
2023-04-09T12:28:21.115Z,2.03
2023-04-09T12:30:41.353Z,1.75
2023-04-09T12:33:02.254Z,2.28
2023-04-09T12:35:23.136Z,2.20
2023-04-09T12:37:44.145Z,2.40
2023-04-09T12:40:04.807Z,2.22
2023-04-09T12:42:25.210Z,2.17
2023-04-09T12:44:45.855Z,1.95
2023-04-09T12:47:07.225Z,2.40
2023-04-09T12:49:27.404Z,2.28
2023-04-09T12:51:47.590Z,2.17
2023-04-09T12:54:07.930Z,2.38
2023-04-09T12:56:29.760Z,2.00
2023-04-09T12:58:50.907Z,2.08
2023-04-09T13:01:11.315Z,2.55
2023-04-09T13:03:31.990Z,2.28
2023-04-09T13:05:52.255Z,2.58
2023-04-09T13:08:12.373Z,2.08
2023-04-09T13:10:32.922Z,1.88
2023-04-09T13:12:53.233Z,2.20
2023-04-09T13:15:13.789Z,2.45
2023-04-09T13:17:34.375Z,2.30
2023-04-09T13:19:54.930Z,1.80
2023-04-09T13:22:15.366Z,1.85
2023-04-09T13:24:35.930Z,2.85
2023-04-09T13:26:56.099Z,1.98
2023-04-09T13:29:17.253Z,2.30
2023-04-09T13:31:37.412Z,1.75
2023-04-09T13:33:57.550Z,2.13
2023-04-09T13:36:17.838Z,2.30
2023-04-09T13:38:38.730Z,1.55
2023-04-09T13:40:58.751Z,1.90
2023-04-09T13:43:18.723Z,1.80
2023-04-09T13:45:39.071Z,2.58
2023-04-09T13:47:59.238Z,2.30
2023-04-09T13:50:19.281Z,1.90
2023-04-09T13:52:39.356Z,2.00
2023-04-09T13:54:59.378Z,2.15
2023-04-09T13:57:19.635Z,2.05
2023-04-09T13:59:41.806Z,2.55
2023-04-09T14:02:02.063Z,2.47
2023-04-09T14:04:23.114Z,2.20
2023-04-09T14:06:43.743Z,3.30
2023-04-09T14:09:03.643Z,2.92
2023-04-09T14:11:23.826Z,2.88
2023-04-09T14:13:43.998Z,2.13
2023-04-09T14:16:04.521Z,1.95
2023-04-09T14:18:25.070Z,2.33
2023-04-09T14:20:45.712Z,2.25
2023-04-09T14:23:05.613Z,2.20
2023-04-09T14:25:25.658Z,2.00
2023-04-09T14:27:46.271Z,2.10
2023-04-09T14:30:07.136Z,1.92
2023-04-09T14:32:27.394Z,1.80
2023-04-09T14:34:47.574Z,2.22
2023-04-09T14:37:08.017Z,1.75
2023-04-09T14:39:28.325Z,2.13
2023-04-09T14:41:48.650Z,1.85
2023-04-09T14:44:08.750Z,1.42
2023-04-09T14:46:28.888Z,1.75
2023-04-09T14:48:49.032Z,2.50
2023-04-09T14:51:10.557Z,1.83
2023-04-09T14:53:30.631Z,2.08
2023-04-09T14:55:50.625Z,1.95
2023-04-09T14:58:11.253Z,1.55
2023-04-09T15:00:32.638Z,1.90
2023-04-09T15:02:53.336Z,1.80
2023-04-09T15:05:13.877Z,1.85
2023-04-09T15:07:34.628Z,1.85
2023-04-09T15:09:55.170Z,2.28
2023-04-09T15:12:15.551Z,1.77
2023-04-09T15:14:35.989Z,1.85
2023-04-09T15:16:56.103Z,1.40
2023-04-09T15:19:16.470Z,1.67
2023-04-09T15:21:37.031Z,1.48
2023-04-09T15:23:58.307Z,2.00
2023-04-09T15:26:18.966Z,1.40
2023-04-09T15:28:38.948Z,1.50
2023-04-09T15:30:59.176Z,1.60
2023-04-09T15:33:19.170Z,1.50
2023-04-09T15:35:39.346Z,1.63
2023-04-09T15:37:59.529Z,1.70
2023-04-09T15:40:20.006Z,1.50
2023-04-09T15:42:40.293Z,1.58
2023-04-09T15:45:00.272Z,1.92
2023-04-09T15:47:20.487Z,1.60
2023-04-09T15:49:40.764Z,1.50
2023-04-09T15:52:00.735Z,1.52
2023-04-09T15:54:21.092Z,1.70
2023-04-09T15:56:41.525Z,2.53
2023-04-09T15:59:04.417Z,1.50
2023-04-09T16:01:24.449Z,2.35
2023-04-09T16:03:49.795Z,2.20
2023-04-09T16:06:14.180Z,1.55
2023-04-09T16:08:34.988Z,1.70
2023-04-09T16:10:55.375Z,1.40
2023-04-09T16:13:16.003Z,1.80
2023-04-09T16:15:35.894Z,1.75
2023-04-09T16:17:56.109Z,1.60
2023-04-09T16:20:16.673Z,1.60
2023-04-09T16:22:36.872Z,1.58
2023-04-09T16:24:56.868Z,2.20
2023-04-09T16:27:17.136Z,2.70
2023-04-09T16:29:37.032Z,2.17
2023-04-09T16:31:57.190Z,2.33
2023-04-09T16:34:17.235Z,1.83
2023-04-09T16:36:37.254Z,2.30
2023-04-09T16:38:57.896Z,2.90
2023-04-09T16:41:18.425Z,2.15
2023-04-09T16:43:38.623Z,1.83
2023-04-09T16:45:58.919Z,2.40
2023-04-09T16:48:19.025Z,1.80
2023-04-09T16:50:39.763Z,2.40
2023-04-09T16:53:01.580Z,3.13
2023-04-09T16:55:21.645Z,2.92
2023-04-09T16:57:42.257Z,2.13
2023-04-09T17:00:05.547Z,1.60
2023-04-09T17:02:26.982Z,1.80
2023-04-09T17:04:47.657Z,2.05
2023-04-09T17:07:07.808Z,1.90
2023-04-09T17:09:28.524Z,2.47
2023-04-09T17:11:48.728Z,1.98
2023-04-09T17:14:08.955Z,2.22
2023-04-09T17:16:29.081Z,2.25
2023-04-09T17:18:49.145Z,5.10
2023-04-09T17:21:09.384Z,4.90
2023-04-09T17:23:29.384Z,3.40
2023-04-09T17:25:49.717Z,4.22
2023-04-09T17:28:10.211Z,3.95
2023-04-09T17:30:32.543Z,2.65
2023-04-09T17:32:52.488Z,2.65
2023-04-09T17:35:12.673Z,3.33
2023-04-09T17:37:33.463Z,2.83
2023-04-09T17:39:53.538Z,4.40
2023-04-09T17:42:14.117Z,4.53
2023-04-09T17:44:34.808Z,4.93
2023-04-09T17:46:55.099Z,5.13
2023-04-09T17:49:15.644Z,3.42
2023-04-09T17:51:36.400Z,3.70
2023-04-09T17:53:56.559Z,3.53
2023-04-09T17:56:16.914Z,4.72
2023-04-09T17:58:37.277Z,4.35
2023-04-09T18:00:58.954Z,3.60
2023-04-09T18:03:19.693Z,3.00
2023-04-09T18:05:40.525Z,4.10
2023-04-09T18:08:03.618Z,4.45
2023-04-09T18:10:23.910Z,4.95
2023-04-09T18:12:44.174Z,4.18
2023-04-09T18:15:04.565Z,3.80
2023-04-09T18:17:25.714Z,2.97
2023-04-09T18:19:46.028Z,4.10
2023-04-09T18:22:06.911Z,4.50
2023-04-09T18:24:28.552Z,3.35
2023-04-09T18:26:49.078Z,4.28
2023-04-09T18:29:09.021Z,3.83
2023-04-09T18:31:29.230Z,3.80
2023-04-09T18:33:49.259Z,4.75
2023-04-09T18:36:09.707Z,4.15
2023-04-09T18:38:29.954Z,3.97
2023-04-09T18:40:50.432Z,4.53
2023-04-09T18:43:13.768Z,4.65
2023-04-09T18:45:34.027Z,3.90
2023-04-09T18:47:54.169Z,2.85
2023-04-09T18:50:18.009Z,4.90
2023-04-09T18:52:38.413Z,4.40
2023-04-09T18:54:58.491Z,4.57
2023-04-09T18:57:19.072Z,4.85
2023-04-09T18:59:39.613Z,5.47
2023-04-09T19:02:00.105Z,4.00
2023-04-09T19:04:20.245Z,4.10
2023-04-09T19:06:40.833Z,14.43
2023-04-09T19:09:01.344Z,12.75
2023-04-09T19:11:21.686Z,7.18
2023-04-09T19:13:41.876Z,6.65
2023-04-09T19:16:02.208Z,5.88
2023-04-09T19:18:22.553Z,4.80
2023-04-09T19:20:42.605Z,7.00
2023-04-09T19:23:02.604Z,6.13
2023-04-09T19:25:23.371Z,6.22
2023-04-09T19:27:44.554Z,6.53
2023-04-09T19:30:05.486Z,6.25
2023-04-09T19:32:26.036Z,7.00
2023-04-09T19:34:46.210Z,6.97
2023-04-09T19:37:06.728Z,7.10
2023-04-09T19:39:26.553Z,6.75
2023-04-09T19:41:46.651Z,9.13
2023-04-09T19:44:08.371Z,13.73
2023-04-09T19:46:28.672Z,12.18
2023-04-09T19:48:49.046Z,10.57
2023-04-09T19:51:15.321Z,11.48
2023-04-09T19:53:36.998Z,11.15
2023-04-09T19:55:57.290Z,9.82
2023-04-09T19:58:17.878Z,9.90
2023-04-09T20:00:38.055Z,9.40
2023-04-09T20:02:58.489Z,10.93
2023-04-09T20:05:22.082Z,12.85
2023-04-09T20:07:43.605Z,13.80
2023-04-09T20:10:04.277Z,14.77
2023-04-09T20:12:28.691Z,10.88
2023-04-09T20:14:49.357Z,10.50
2023-04-09T20:17:10.007Z,10.52
2023-04-09T20:19:31.076Z,12.02
2023-04-09T20:21:52.077Z,12.30
2023-04-09T20:24:12.567Z,12.48
2023-04-09T20:26:32.684Z,12.55
2023-04-09T20:28:52.877Z,10.10
2023-04-09T20:31:13.581Z,9.40
2023-04-09T20:33:34.058Z,10.43
2023-04-09T20:35:55.767Z,13.25
2023-04-09T20:38:19.773Z,12.40
2023-04-09T20:40:39.825Z,12.15
2023-04-09T20:42:59.945Z,10.50
2023-04-09T20:45:20.038Z,11.50
2023-04-09T20:47:40.406Z,11.32
2023-04-09T20:50:01.485Z,12.38
2023-04-09T20:52:22.805Z,9.38
2023-04-09T20:54:43.013Z,7.43
2023-04-09T20:57:04.975Z,8.57
2023-04-09T20:59:25.697Z,13.60
2023-04-09T21:01:46.215Z,14.82
2023-04-09T21:04:06.693Z,13.52
2023-04-09T21:06:26.706Z,13.75
2023-04-09T21:08:46.998Z,13.65
2023-04-09T21:11:07.070Z,13.80
2023-04-09T21:13:27.277Z,14.77
2023-04-09T21:15:48.259Z,13.10
2023-04-09T21:18:08.608Z,16.77
2023-04-09T21:20:28.692Z,15.10
2023-04-09T21:22:48.787Z,13.43
2023-04-09T21:25:09.098Z,14.35
2023-04-09T21:27:29.222Z,14.18
2023-04-09T21:29:49.725Z,12.15
2023-04-09T21:32:09.808Z,12.23
2023-04-09T21:34:30.756Z,13.30
2023-04-09T21:36:51.324Z,13.23
2023-04-09T21:39:11.150Z,11.25
2023-04-09T21:41:31.548Z,8.38
2023-04-09T21:43:51.792Z,8.65
2023-04-09T21:46:11.877Z,9.25
2023-04-09T21:48:32.039Z,9.45
2023-04-09T21:50:52.157Z,8.98
2023-04-09T21:53:13.205Z,9.45
2023-04-09T21:55:35.826Z,8.27
2023-04-09T21:57:56.380Z,7.40
2023-04-09T22:00:16.927Z,6.20
2023-04-09T22:02:41.192Z,7.63
2023-04-09T22:05:01.745Z,6.45
2023-04-09T22:07:21.801Z,6.93
2023-04-09T22:09:41.728Z,6.65
2023-04-09T22:12:05.084Z,4.60
2023-04-09T22:14:29.784Z,6.05
2023-04-09T22:16:50.379Z,6.63
2023-04-09T22:19:13.417Z,5.45
2023-04-09T22:21:33.629Z,8.73
2023-04-09T22:23:53.686Z,7.32
2023-04-09T22:26:13.974Z,6.40
2023-04-09T22:28:34.064Z,6.65
2023-04-09T22:30:54.343Z,8.05
2023-04-09T22:33:14.930Z,10.15
2023-04-09T22:35:35.735Z,8.63
2023-04-09T22:37:56.220Z,8.43
2023-04-09T22:40:16.531Z,7.63
2023-04-09T22:42:36.868Z,10.20
2023-04-09T22:44:57.222Z,8.50
2023-04-09T22:47:17.349Z,8.02
2023-04-09T22:49:37.989Z,6.97
2023-04-09T22:51:58.186Z,6.90
2023-04-09T22:54:18.995Z,7.13
2023-04-09T22:56:39.244Z,7.13
2023-04-09T22:58:59.800Z,7.35
2023-04-09T23:01:21.437Z,8.13
2023-04-09T23:03:41.942Z,7.07
2023-04-09T23:06:02.214Z,7.10
2023-04-09T23:08:22.412Z,7.22
2023-04-09T23:10:42.643Z,7.07
2023-04-09T23:13:02.851Z,6.22
2023-04-09T23:15:22.946Z,8.02
2023-04-09T23:17:42.971Z,8.70
2023-04-09T23:20:03.277Z,7.63
2023-04-09T23:22:23.769Z,9.07
2023-04-09T23:24:43.999Z,8.95
2023-04-09T23:27:04.209Z,10.63
2023-04-09T23:29:24.265Z,9.00
2023-04-09T23:31:44.385Z,6.70
2023-04-09T23:34:04.377Z,7.28
2023-04-09T23:36:25.382Z,7.85
2023-04-09T23:38:46.383Z,8.05
2023-04-09T23:41:06.647Z,7.05
2023-04-09T23:43:26.827Z,5.70
2023-04-09T23:45:49.235Z,5.28
2023-04-09T23:48:11.771Z,6.43
2023-04-09T23:50:31.675Z,6.60
2023-04-09T23:52:52.702Z,6.05
2023-04-09T23:55:13.189Z,6.95
2023-04-09T23:57:33.556Z,8.38
2023-04-09T23:59:53.833Z,7.28
